Time;durP1;ratioP1;P1;durP2;ratioP2;P2;SDS_P1;SDS_P2;PMS_P1;PMS_P2;Temp;Humidity;BMP_temperature;BMP_pressure;BME280_temperature;BME280_humidity;BME280_pressure;Samples;Min_cycle;Max_cycle;Signal;HPM_P1;HPM_P2
2022/11/24 06:34:00;;;;;;;;;;;;;;;11.40;75.20;96869.69;4214163;27;10398;-65
2022/11/24 06:36:06;;;;;;;;;;;;;;;11.55;74.85;96872.19;4223318;28;5921;-65
2022/11/24 06:38:09;;;;;;;;;;;;;;;11.66;74.69;96868.97;4225788;28;6634;-67
2022/11/24 06:40:12;;;;;;;;;;;;;;;11.72;74.17;96877.97;4226145;28;5800;-67
2022/11/24 06:42:17;;;;;;;;;;;;;;;11.77;73.97;96872.88;4227140;28;5682;-66
2022/11/24 06:44:21;;;;;;;;;;;;;;;11.80;73.68;96859.31;4212787;28;5679;-66
2022/11/24 06:46:24;;;;;;;;;;;;;;;11.84;73.54;96876.41;4215113;28;5684;-66
2022/11/24 06:48:27;;;;;;;;;;;;;;;11.88;73.09;96875.00;4219645;28;5791;-65
2022/11/24 06:50:31;;;;;;;;;;;;;;;11.89;73.11;96880.13;4219960;28;5664;-68
2022/11/24 06:52:35;;;;;;;;;;;;;;;11.90;72.97;96888.88;4222647;28;6350;-68
2022/11/24 06:54:38;;;;;;;;;;;;;;;11.91;72.73;96887.88;4231492;28;5667;-69
2022/11/24 06:56:41;;;;;;;;;;;;;;;11.93;72.34;96886.63;4215688;28;5753;-70
2022/11/24 06:58:46;;;;;;;;;;;;;;;11.95;72.13;96884.59;4222747;28;5893;-70
2022/11/24 07:00:48;;;;;;;;;;;;;;;11.97;72.32;96886.22;4222445;28;6405;-70
2022/11/24 07:02:51;;;;;;;;;;;;;;;11.97;72.26;96889.69;4222661;28;6474;-70
2022/11/24 07:04:54;;;;;;;;;;;;;;;11.98;72.13;96893.16;4222516;28;5766;-70
2022/11/24 07:06:59;;;;;;;;;;;;;;;11.98;71.84;96891.31;4214813;28;5821;-69
2022/11/24 07:09:02;;;;;;;;;;;;;;;12.01;71.84;96892.78;4224192;28;5818;-69
2022/11/24 07:11:06;;;;;;;;;;;;;;;12.03;71.46;96896.03;4231130;28;5671;-70
2022/11/24 07:13:09;;;;;;;;;;;;;;;12.03;71.54;96899.50;4228655;28;6632;-70
2022/11/24 07:15:13;;;;;;;;;;;;;;;12.04;71.27;96898.50;4221858;28;5768;-69
2022/11/24 07:17:16;;;;;;;;;;;;;;;12.06;71.08;96907.06;4225013;28;5751;-70
2022/11/24 07:19:19;;;;;;;;;;;;;;;12.05;70.93;96905.44;4230909;28;5676;-69
2022/11/24 07:21:27;;;;;;;;;;;;;;;12.06;70.94;96922.97;4226087;28;5729;-70
2022/11/24 07:23:32;;;;;;;;;;;;;;;12.08;70.88;96926.22;4212926;28;5708;-70
2022/11/24 07:25:35;;;;;;;;;;;;;;;12.09;70.88;96927.84;4210094;28;5682;-70
2022/11/24 07:27:37;;;;;;;;;;;;;;;12.10;70.65;96929.47;4203149;28;5063;-70
2022/11/24 07:29:40;;;;;;;;;;;;;;;12.11;70.19;96936.41;4203198;28;5701;-70
2022/11/24 07:31:44;;;;;;;;;;;;;;;12.11;70.53;96941.72;4202910;28;5709;-70
2022/11/24 07:33:48;;;;;;;;;;;;;;;12.12;70.42;96938.06;4202934;28;5686;-70
2022/11/24 07:35:51;;;;;;;;;;;;;;;12.13;69.91;96942.34;4203625;28;5701;-69
2022/11/24 07:37:55;;;;;;;;;;;;;;;12.12;69.96;96942.56;4211923;28;5884;-70
2022/11/24 07:39:59;;;;;;;;;;;;;;;12.14;69.99;96937.88;4219864;28;5669;-70
2022/11/24 07:42:04;;;;;;;;;;;;;;;12.15;69.67;96936.84;4219696;28;5795;-70
2022/11/24 07:44:07;;;;;;;;;;;;;;;12.15;69.55;96924.41;4219764;28;5676;-70
2022/11/24 07:46:12;;;;;;;;;;;;;;;12.17;69.79;96926.88;4219597;28;5770;-70
2022/11/24 07:48:15;;;;;;;;;;;;;;;12.18;69.34;96929.31;4220040;28;5672;-70
2022/11/24 07:50:18;;;;;;;;;;;;;;;12.21;69.42;96925.44;4219480;28;5894;-71
2022/11/24 07:52:25;;;;;;;;;;;;;;;12.21;69.17;96928.09;4219612;28;6585;-71
2022/11/24 07:54:28;;;;;;;;;;;;;;;12.21;68.95;96926.25;4205769;28;5764;-71
2022/11/24 07:56:32;;;;;;;;;;;;;;;12.22;69.06;96927.88;4202733;28;5734;-69
2022/11/24 07:58:37;;;;;;;;;;;;;;;12.23;69.14;96929.53;4202939;28;5682;-71
2022/11/24 08:00:39;;;;;;;;;;;;;;;12.22;69.09;96927.06;4202755;28;5788;-69
2022/11/24 08:02:42;;;;;;;;;;;;;;;12.22;68.82;96922.59;4203002;28;5694;-70
2022/11/24 08:04:46;;;;;;;;;;;;;;;12.23;68.92;96918.09;4202652;28;5959;-70
2022/11/24 08:06:49;;;;;;;;;;;;;;;12.22;68.66;96916.47;4202948;28;5810;-70
2022/11/24 08:08:52;;;;;;;;;;;;;;;12.21;68.68;96928.91;4202877;28;5701;-70
2022/11/24 08:10:55;;;;;;;;;;;;;;;12.23;68.66;96923.41;4202487;28;5693;-70
2022/11/24 08:13:01;;;;;;;;;;;;;;;12.23;68.48;96931.34;4202860;28;5686;-71
2022/11/24 08:15:06;;;;;;;;;;;;;;;12.24;68.64;96927.72;4202274;28;5773;-69
2022/11/24 08:17:13;;;;;;;;;;;;;;;12.26;68.14;96932.81;4202490;28;5774;-70
2022/11/24 08:19:16;;;;;;;;;;;;;;;12.27;68.18;96932.59;4202583;28;5764;-71
2022/11/24 08:21:21;;;;;;;;;;;;;;;12.28;68.31;96930.75;4202504;28;5713;-70
2022/11/24 08:23:27;;;;;;;;;;;;;;;12.32;68.12;96943.41;4202663;28;5796;-70
2022/11/24 08:25:31;;;;;;;;;;;;;;;12.35;68.05;96942.22;4207682;28;5679;-70
2022/11/24 08:27:34;;;;;;;;;;;;;;;12.38;67.89;96947.91;4204224;28;5847;-69
2022/11/24 08:29:39;;;;;;;;;;;;;;;12.39;67.87;96946.09;4202174;28;5698;-69
2022/11/24 08:31:41;;;;;;;;;;;;;;;12.41;67.78;96947.50;4202103;28;5694;-70
2022/11/24 08:33:45;;;;;;;;;;;;;;;12.42;67.80;96948.31;4202094;28;5682;-69
2022/11/24 08:35:48;;;;;;;;;;;;;;;12.42;67.75;96946.50;4202325;28;5707;-70
2022/11/24 08:37:51;;;;;;;;;;;;;;;12.43;67.48;96947.31;4201347;28;5697;-70
2022/11/24 08:39:53;;;;;;;;;;;;;;;12.45;67.56;96953.22;4201860;28;5694;-70
2022/11/24 08:41:56;;;;;;;;;;;;;;;12.45;67.52;96958.53;4202162;28;5718;-71
2022/11/24 08:43:59;;;;;;;;;;;;;;;12.44;67.36;96957.72;4202038;28;5686;-70
2022/11/24 08:46:07;;;;;;;;;;;;;;;12.47;67.42;96962.63;4201689;28;5686;-70
2022/11/24 08:48:09;;;;;;;;;;;;;;;12.46;67.08;96960.19;4202014;28;5860;-70
2022/11/24 08:50:13;;;;;;;;;;;;;;;12.47;66.96;96969.78;4202135;28;5074;-71
2022/11/24 08:52:16;;;;;;;;;;;;;;;12.48;66.87;96969.56;4202232;28;5682;-70
2022/11/24 08:54:20;;;;;;;;;;;;;;;12.48;67.11;96977.53;4202142;28;5694;-70
2022/11/24 08:56:23;;;;;;;;;;;;;;;12.49;66.91;96981.81;4201868;28;6379;-70
2022/11/24 08:58:27;;;;;;;;;;;;;;;12.50;66.85;96977.31;4209955;28;5694;-71
2022/11/24 09:00:30;;;;;;;;;;;;;;;12.52;66.95;96983.22;4201588;28;5698;-70
2022/11/24 09:02:34;;;;;;;;;;;;;;;12.51;66.58;96979.75;4202042;28;5697;-70
2022/11/24 09:04:37;;;;;;;;;;;;;;;12.54;66.63;96976.72;4201759;28;5702;-71
2022/11/24 09:06:40;;;;;;;;;;;;;;;12.53;66.40;96976.91;4201874;28;5793;-70
2022/11/24 09:08:43;;;;;;;;;;;;;;;12.52;66.35;96980.59;4201870;28;5717;-70
2022/11/24 09:10:46;;;;;;;;;;;;;;;12.52;66.23;96983.22;4201617;28;6499;-71
2022/11/24 09:12:50;;;;;;;;;;;;;;;12.52;66.31;96977.94;4202000;28;5690;-71
2022/11/24 09:14:55;;;;;;;;;;;;;;;12.52;66.01;96980.59;4185034;28;5714;-71
2022/11/24 09:16:58;;;;;;;;;;;;;;;12.51;66.03;96982.41;4184422;28;5880;-70
2022/11/24 09:19:04;;;;;;;;;;;;;;;12.50;65.82;96993.22;4184818;28;5734;-71
2022/11/24 09:21:11;;;;;;;;;;;;;;;12.46;65.90;96992.00;4185128;28;5702;-70
2022/11/24 09:23:14;;;;;;;;;;;;;;;12.47;65.77;96989.16;4185262;28;5737;-70
2022/11/24 09:25:17;;;;;;;;;;;;;;;12.48;65.51;96989.97;4184835;28;5798;-70
2022/11/24 09:27:19;;;;;;;;;;;;;;;12.48;65.75;96984.66;4185006;28;5083;-70
2022/11/24 09:29:22;;;;;;;;;;;;;;;12.50;65.40;96990.56;4193390;28;5672;-70
2022/11/24 09:31:32;;;;;;;;;;;;;;;12.53;65.42;96993.63;4217970;28;5660;-70
2022/11/24 09:33:36;;;;;;;;;;;;;;;12.56;65.35;96987.09;4218087;28;5522;-70
2022/11/24 09:35:40;;;;;;;;;;;;;;;12.59;65.14;96989.38;4218038;28;7375;-71
2022/11/24 09:37:44;;;;;;;;;;;;;;;12.60;65.41;96995.50;4218087;28;5684;-70
2022/11/24 09:39:47;;;;;;;;;;;;;;;12.60;65.21;97004.28;4218053;28;5684;-71
2022/11/24 09:42:13;;;;;;;;;;;;;;;12.64;64.94;97002.84;4218035;28;5085;-71
2022/11/24 09:44:44;;;;;;;;;;;;;;;12.67;65.13;97005.09;4218020;28;5668;-71
2022/11/24 09:46:58;;;;;;;;;;;;;;;12.71;64.87;97011.66;4200297;28;5678;-71
2022/11/24 09:49:04;;;;;;;;;;;;;;;12.72;64.67;97007.97;4201097;28;5694;-71
2022/11/24 09:51:12;;;;;;;;;;;;;;;12.74;64.84;97010.41;4201336;28;5701;-70
2022/11/24 09:53:22;;;;;;;;;;;;;;;12.72;64.64;97007.97;4201086;28;6442;-70
2022/11/24 09:55:34;;;;;;;;;;;;;;;12.73;64.84;97011.44;4201476;28;5798;-70
2022/11/24 09:57:40;;;;;;;;;;;;;;;12.75;64.68;97012.88;4201009;28;6399;-70
2022/11/24 09:59:43;;;;;;;;;;;;;;;12.75;64.47;97010.22;4201225;28;5705;-70
2022/11/24 10:01:47;;;;;;;;;;;;;;;12.75;64.54;97007.56;4208092;28;5692;-70
2022/11/24 10:03:52;;;;;;;;;;;;;;;12.74;64.41;97019.19;4218005;28;5669;-70
2022/11/24 10:05:55;;;;;;;;;;;;;;;12.77;64.61;97012.66;4218132;28;5656;-70
2022/11/24 10:08:10;;;;;;;;;;;;;;;12.79;64.14;97011.44;4217787;28;5688;-70
2022/11/24 10:10:17;;;;;;;;;;;;;;;12.81;64.25;97004.13;4217674;28;5738;-70
2022/11/24 10:12:44;;;;;;;;;;;;;;;12.78;63.97;97006.34;4217751;28;5663;-71
2022/11/24 10:15:04;;;;;;;;;;;;;;;12.78;64.17;97006.34;4217389;28;5680;-70
2022/11/24 10:17:18;;;;;;;;;;;;;;;12.79;64.14;97006.13;4215212;28;5926;-70
2022/11/24 10:19:35;;;;;;;;;;;;;;;12.81;64.20;97001.47;4200921;28;5819;-70
2022/11/24 10:21:51;;;;;;;;;;;;;;;12.83;64.05;97001.25;4201145;28;5721;-70
2022/11/24 10:24:09;;;;;;;;;;;;;;;12.87;63.78;96993.69;4200772;28;5697;-70
2022/11/24 10:26:18;;;;;;;;;;;;;;;12.89;63.83;96986.34;4200791;28;6332;-70
2022/11/24 10:28:21;;;;;;;;;;;;;;;12.90;63.58;96996.75;4200905;28;5705;-69
2022/11/24 10:30:24;;;;;;;;;;;;;;;12.87;63.55;96994.50;4200460;28;5690;-70
2022/11/24 10:32:33;;;;;;;;;;;;;;;12.89;63.64;97002.25;4200935;28;5209;-70
2022/11/24 10:34:40;;;;;;;;;;;;;;;12.89;63.34;97002.25;4215300;28;5772;-71
2022/11/24 10:36:49;;;;;;;;;;;;;;;12.90;63.43;97010.03;4217710;28;5750;-70
2022/11/24 10:38:59;;;;;;;;;;;;;;;12.93;63.35;97007.00;4217518;28;5967;-71
2022/11/24 10:41:08;;;;;;;;;;;;;;;12.95;63.42;97017.41;4217314;28;5676;-70
2022/11/24 10:43:11;;;;;;;;;;;;;;;12.97;63.13;97013.50;4217636;28;5668;-71
2022/11/24 10:45:17;;;;;;;;;;;;;;;12.99;63.06;97006.16;4205613;28;5730;-70
2022/11/24 10:47:21;;;;;;;;;;;;;;;12.99;62.82;97000.84;4200675;28;5803;-70
2022/11/24 10:49:29;;;;;;;;;;;;;;;13.00;62.79;96999.00;4200785;28;5698;-70
2022/11/24 10:51:52;;;;;;;;;;;;;;;13.01;62.86;97000.66;4201098;28;5781;-70
2022/11/24 10:54:01;;;;;;;;;;;;;;;13.02;62.80;97003.13;4200570;28;5690;-70
2022/11/24 10:56:06;;;;;;;;;;;;;;;13.06;62.51;97003.53;4200549;28;5792;-70
2022/11/24 10:58:16;;;;;;;;;;;;;;;13.07;62.30;97010.47;4200497;28;5785;-70
2022/11/24 11:00:31;;;;;;;;;;;;;;;13.07;62.48;97007.81;4200546;28;5682;-70
2022/11/24 11:02:37;;;;;;;;;;;;;;;13.06;62.44;97007.00;4203669;28;5687;-71
2022/11/24 11:04:40;;;;;;;;;;;;;;;13.07;62.31;97002.50;4203843;28;5784;-70
2022/11/24 11:06:44;;;;;;;;;;;;;;;13.06;62.20;97008.81;4219252;28;5739;-70
2022/11/24 11:08:48;;;;;;;;;;;;;;;13.04;61.90;97005.56;4220406;28;5676;-70
2022/11/24 11:11:07;;;;;;;;;;;;;;;13.01;61.98;97011.25;4220251;28;5668;-70
2022/11/24 11:13:26;;;;;;;;;;;;;;;13.04;62.08;97010.88;4209294;28;5789;-69
2022/11/24 11:15:31;;;;;;;;;;;;;;;13.03;62.00;97012.72;4203334;28;6379;-68
2022/11/24 11:17:36;;;;;;;;;;;;;;;13.02;61.83;97008.44;4203254;28;5701;-69
2022/11/24 11:19:40;;;;;;;;;;;;;;;13.03;61.81;97002.09;4218491;28;5667;-70
2022/11/24 11:22:01;;;;;;;;;;;;;;;13.02;62.07;96997.81;4211427;28;5781;-69
2022/11/24 11:24:13;;;;;;;;;;;;;;;13.04;61.94;96998.41;4203589;28;5829;-69
2022/11/24 11:26:31;;;;;;;;;;;;;;;13.07;62.00;96999.84;4203208;28;5761;-69
2022/11/24 11:28:36;;;;;;;;;;;;;;;13.08;61.93;97001.47;4203652;28;5793;-69
2022/11/24 11:30:38;;;;;;;;;;;;;;;13.09;61.81;97000.44;4203593;28;5886;-70
2022/11/24 11:33:01;;;;;;;;;;;;;;;13.09;61.88;96992.50;4203169;28;5678;-70
2022/11/24 11:35:27;;;;;;;;;;;;;;;13.10;61.47;96988.81;4203442;28;5702;-70
2022/11/24 11:37:32;;;;;;;;;;;;;;;13.10;61.55;96991.47;4203060;28;5701;-69
2022/11/24 11:39:37;;;;;;;;;;;;;;;13.10;61.82;96991.47;4217680;28;5672;-70
2022/11/24 11:41:51;;;;;;;;;;;;;;;13.11;61.54;96991.25;4219799;28;5660;-70
2022/11/24 11:44:04;;;;;;;;;;;;;;;13.14;61.42;96990.06;4219813;28;5664;-70
2022/11/24 11:46:11;;;;;;;;;;;;;;;13.16;61.38;96989.84;4219731;28;5732;-70
2022/11/24 11:48:26;;;;;;;;;;;;;;;13.17;61.36;96992.28;4207825;28;5848;-70
2022/11/24 11:50:40;;;;;;;;;;;;;;;13.20;61.59;96989.25;4202899;28;7370;-70
2022/11/24 11:53:11;;;;;;;;;;;;;;;13.22;61.29;96989.03;4202842;28;5775;-70
2022/11/24 11:55:42;;;;;;;;;;;;;;;13.25;61.28;96991.28;4214600;28;5770;-70
2022/11/24 11:58:03;;;;;;;;;;;;;;;13.24;61.45;96987.81;4206419;28;5110;-70
2022/11/24 12:00:13;;;;;;;;;;;;;;;13.27;61.25;96990.09;4219707;28;5668;-70
2022/11/24 12:02:41;;;;;;;;;;;;;;;13.27;61.18;96979.47;4219464;28;5676;-70
2022/11/24 12:04:52;;;;;;;;;;;;;;;13.29;61.39;96988.03;4219333;28;5675;-70
2022/11/24 12:07:21;;;;;;;;;;;;;;;13.27;61.16;96978.66;4219472;28;5751;-70
2022/11/24 12:09:35;;;;;;;;;;;;;;;13.29;61.19;96987.22;4219240;28;5773;-70
2022/11/24 12:11:47;;;;;;;;;;;;;;;13.30;61.01;96991.50;4203188;28;5266;-70
2022/11/24 12:14:18;;;;;;;;;;;;;;;13.30;61.05;96986.19;4202567;28;7718;-70
2022/11/24 12:16:32;;;;;;;;;;;;;;;13.32;60.81;96979.66;4197671;28;5761;-70
2022/11/24 12:18:43;;;;;;;;;;;;;;;13.35;60.89;96976.56;4202377;28;5915;-70
2022/11/24 12:21:10;;;;;;;;;;;;;;;13.38;60.55;96970.06;4202647;28;6376;-70
2022/11/24 12:23:22;;;;;;;;;;;;;;;13.37;60.40;96968.44;4213903;28;5660;-70
2022/11/24 12:25:29;;;;;;;;;;;;;;;13.38;60.68;96973.53;4219183;28;5664;-70
2022/11/24 12:27:41;;;;;;;;;;;;;;;13.38;60.65;96970.88;4204543;28;5706;-70
2022/11/24 12:30:09;;;;;;;;;;;;;;;13.35;60.32;96973.09;4202478;28;5695;-70
2022/11/24 12:32:28;;;;;;;;;;;;;;;13.35;60.48;96963.28;4201743;28;5698;-70
2022/11/24 12:34:46;;;;;;;;;;;;;;;13.39;60.21;96961.06;4202523;28;5705;-70
2022/11/24 12:37:04;;;;;;;;;;;;;;;13.39;60.09;96967.19;4202494;28;5070;-70
2022/11/24 12:39:20;;;;;;;;;;;;;;;13.40;59.97;96958.19;4202138;28;5786;-70
2022/11/24 12:41:35;;;;;;;;;;;;;;;13.42;60.08;96958.00;4202368;28;5800;-70
2022/11/24 12:43:50;;;;;;;;;;;;;;;13.45;59.75;96954.91;4217792;28;5767;-70
2022/11/24 12:46:00;;;;;;;;;;;;;;;13.45;59.87;96940.81;4218485;28;6542;-69
2022/11/24 12:48:37;;;;;;;;;;;;;;;13.44;59.76;96936.53;4218695;28;5696;-70
2022/11/24 12:50:43;;;;;;;;;;;;;;;13.42;59.78;96931.44;4218918;28;6484;-70
2022/11/24 12:52:50;;;;;;;;;;;;;;;13.40;59.94;96931.66;4211212;28;5694;-70
2022/11/24 12:55:01;;;;;;;;;;;;;;;13.39;59.62;96927.38;4201965;28;5702;-70
2022/11/24 12:57:10;;;;;;;;;;;;;;;13.40;59.64;96920.22;4201789;28;5789;-71
2022/11/24 12:59:28;;;;;;;;;;;;;;;13.42;59.60;96912.03;4208049;28;6053;-70
2022/11/24 13:01:38;;;;;;;;;;;;;;;13.41;59.90;96900.59;4193968;28;7249;-69
2022/11/24 13:03:49;;;;;;;;;;;;;;;13.43;59.79;96898.53;4196269;28;6383;-70
2022/11/24 13:05:57;;;;;;;;;;;;;;;13.41;59.69;96889.97;4201735;28;5696;-69
2022/11/24 13:08:03;;;;;;;;;;;;;;;13.40;59.83;96889.16;4198306;28;5701;-71
2022/11/24 13:10:40;;;;;;;;;;;;;;;13.39;59.85;96881.41;4195264;28;5709;-70
2022/11/24 13:13:02;;;;;;;;;;;;;;;13.42;59.61;96874.84;4166757;28;5771;-70
2022/11/24 13:15:15;;;;;;;;;;;;;;;13.41;59.56;96871.38;4157374;28;5788;-71
2022/11/24 13:17:38;;;;;;;;;;;;;;;13.40;59.61;96873.22;4153115;28;5871;-70
2022/11/24 13:20:21;;;;;;;;;;;;;;;13.39;59.17;96876.91;4164712;28;5755;-70
2022/11/24 13:22:25;;;;;;;;;;;;;;;13.39;59.16;96876.91;4162887;28;5906;-69
2022/11/24 13:24:30;;;;;;;;;;;;;;;13.39;59.33;96878.75;4165204;28;6601;-69
2022/11/24 13:26:46;;;;;;;;;;;;;;;13.39;59.28;96876.91;4161082;28;5858;-69
2022/11/24 13:29:03;;;;;;;;;;;;;;;13.40;59.37;96870.56;4164983;28;5798;-69
2022/11/24 13:31:26;;;;;;;;;;;;;;;13.40;59.07;96867.91;4163150;28;6488;-69
2022/11/24 13:33:34;;;;;;;;;;;;;;;13.40;59.37;96862.59;4165800;28;5775;-70
2022/11/24 13:35:38;;;;;;;;;;;;;;;13.39;59.23;96853.00;4164001;28;6597;-69
2022/11/24 13:37:50;;;;;;;;;;;;;;;13.38;59.39;96850.56;4164918;28;5751;-70
2022/11/24 13:39:57;;;;;;;;;;;;;;;13.36;59.59;96850.78;4165375;28;5795;-70
2022/11/24 13:42:00;;;;;;;;;;;;;;;13.34;59.35;96844.84;4162063;28;5902;-70
2022/11/24 13:44:24;;;;;;;;;;;;;;;13.33;59.51;96845.06;4185156;28;5788;-69
2022/11/24 13:46:55;;;;;;;;;;;;;;;13.30;59.58;96840.16;4196551;28;5700;-70
2022/11/24 13:49:14;;;;;;;;;;;;;;;13.31;59.57;96836.47;4195237;28;5709;-70
2022/11/24 13:51:23;;;;;;;;;;;;;;;13.31;59.45;96839.94;4202327;28;5704;-69
2022/11/24 13:53:32;;;;;;;;;;;;;;;13.31;59.64;96831.19;4199390;28;6382;-69
2022/11/24 13:55:38;;;;;;;;;;;;;;;13.32;59.43;96827.50;4199984;28;5126;-70
2022/11/24 13:57:44;;;;;;;;;;;;;;;13.31;59.71;96826.69;4196519;28;5773;-69
2022/11/24 13:59:47;;;;;;;;;;;;;;;13.30;59.32;96825.06;4190155;28;5968;-70
2022/11/24 14:01:57;;;;;;;;;;;;;;;13.28;59.31;96824.44;4194223;28;5706;-70
2022/11/24 14:04:17;;;;;;;;;;;;;;;13.28;59.68;96821.78;4186049;28;5770;-70
2022/11/24 14:06:41;;;;;;;;;;;;;;;13.29;59.57;96823.41;4195039;28;5702;-70
2022/11/24 14:08:46;;;;;;;;;;;;;;;13.29;59.35;96819.97;4198730;28;5721;-71
2022/11/24 14:10:50;;;;;;;;;;;;;;;13.29;59.49;96818.13;4192117;28;5880;-70
2022/11/24 14:13:23;;;;;;;;;;;;;;;13.29;59.69;96820.78;4195439;28;5690;-70
2022/11/24 14:15:32;;;;;;;;;;;;;;;13.28;59.48;96808.53;4188095;28;5710;-69
2022/11/24 14:17:37;;;;;;;;;;;;;;;13.28;59.65;96800.56;4200172;28;5690;-69
2022/11/24 14:19:40;;;;;;;;;;;;;;;13.27;59.61;96787.50;4194159;28;5788;-70
2022/11/24 14:21:45;;;;;;;;;;;;;;;13.26;59.52;96794.66;4200070;28;5701;-70
2022/11/24 14:23:51;;;;;;;;;;;;;;;13.26;59.43;96797.31;4196970;28;5681;-70
2022/11/24 14:25:54;;;;;;;;;;;;;;;13.26;59.72;96796.50;4191093;28;5685;-70
2022/11/24 14:27:57;;;;;;;;;;;;;;;13.26;59.79;96807.09;4198330;28;5898;-70
2022/11/24 14:30:02;;;;;;;;;;;;;;;13.28;59.65;96807.72;4191496;28;5508;-70
2022/11/24 14:32:16;;;;;;;;;;;;;;;13.27;59.66;96796.28;4184941;28;7817;-70
2022/11/24 14:34:20;;;;;;;;;;;;;;;13.27;59.49;96784.84;4194397;28;5671;-70
2022/11/24 14:36:23;;;;;;;;;;;;;;;13.25;59.54;96774.44;4204152;28;6474;-71
2022/11/24 14:38:27;;;;;;;;;;;;;;;13.26;59.51;96772.59;4200633;28;5696;-71
2022/11/24 14:40:39;;;;;;;;;;;;;;;13.24;59.52;96772.78;4205176;28;5074;-69
2022/11/24 14:42:49;;;;;;;;;;;;;;;13.23;59.30;96771.16;4190959;28;5094;-70
2022/11/24 14:44:55;;;;;;;;;;;;;;;13.24;59.26;96778.09;4185905;28;5848;-69
2022/11/24 14:47:03;;;;;;;;;;;;;;;13.23;59.21;96780.97;4187892;28;5833;-70
2022/11/24 14:49:07;;;;;;;;;;;;;;;13.22;59.16;96769.53;4204587;28;5810;-70
2022/11/24 14:51:15;;;;;;;;;;;;;;;13.21;59.24;96767.91;4198957;28;5860;-70
2022/11/24 14:53:23;;;;;;;;;;;;;;;13.20;59.20;96770.75;4193540;28;6407;-69
2022/11/24 14:55:31;;;;;;;;;;;;;;;13.19;59.14;96767.28;4198155;28;5715;-70
2022/11/24 14:57:35;;;;;;;;;;;;;;;13.20;59.38;96774.22;4192967;28;5884;-70
2022/11/24 14:59:38;;;;;;;;;;;;;;;13.20;59.11;96771.56;4188211;28;5694;-70
2022/11/24 15:01:41;;;;;;;;;;;;;;;13.21;59.20;96769.75;4204320;28;5688;-71
2022/11/24 15:03:44;;;;;;;;;;;;;;;13.20;59.15;96755.66;4190454;28;5856;-70
2022/11/24 15:05:53;;;;;;;;;;;;;;;13.20;59.35;96758.31;4195664;28;6378;-70
2022/11/24 15:08:02;;;;;;;;;;;;;;;13.20;59.54;96755.66;4194197;28;6709;-69
2022/11/24 15:10:17;;;;;;;;;;;;;;;13.21;59.23;96757.28;4220240;28;5660;-70
2022/11/24 15:12:27;;;;;;;;;;;;;;;13.21;59.49;96754.63;4199799;28;5824;-70
2022/11/24 15:14:40;;;;;;;;;;;;;;;13.22;59.48;96758.91;4197452;28;5693;-70
2022/11/24 15:16:43;;;;;;;;;;;;;;;13.21;59.30;96769.75;4197190;28;5693;-70
2022/11/24 15:18:48;;;;;;;;;;;;;;;13.20;59.52;96763.63;4188836;28;5808;-69
2022/11/24 15:20:54;;;;;;;;;;;;;;;13.19;59.31;96775.25;4195173;28;5705;-70
2022/11/24 15:23:21;;;;;;;;;;;;;;;13.18;59.61;96780.75;4198140;28;5685;-70
2022/11/24 15:25:32;;;;;;;;;;;;;;;13.17;59.32;96785.25;4197099;28;5941;-69
2022/11/24 15:27:36;;;;;;;;;;;;;;;13.17;59.62;96790.56;4199073;28;5864;-70
2022/11/24 15:29:39;;;;;;;;;;;;;;;13.17;59.58;96793.22;4204166;28;5672;-70
2022/11/24 15:31:42;;;;;;;;;;;;;;;13.18;59.77;96799.34;4197748;28;6127;-69
2022/11/24 15:33:53;;;;;;;;;;;;;;;13.17;59.44;96803.00;4199550;28;6473;-70
2022/11/24 15:35:57;;;;;;;;;;;;;;;13.15;59.68;96797.09;4192695;28;5856;-70
2022/11/24 15:38:00;;;;;;;;;;;;;;;13.15;59.71;96805.06;4193204;28;5706;-71
2022/11/24 15:40:02;;;;;;;;;;;;;;;13.13;59.58;96802.59;4204237;28;5801;-70
2022/11/24 15:42:06;;;;;;;;;;;;;;;13.12;59.90;96800.97;4194049;28;5882;-69
2022/11/24 15:44:10;;;;;;;;;;;;;;;13.10;59.96;96810.97;4198316;28;5674;-69
2022/11/24 15:46:13;;;;;;;;;;;;;;;13.08;59.70;96805.06;4200633;28;5775;-69
2022/11/24 15:48:16;;;;;;;;;;;;;;;13.07;59.81;96806.09;4196587;28;6578;-69
2022/11/24 15:50:21;;;;;;;;;;;;;;;13.07;60.09;96801.59;4200931;28;5860;-69
2022/11/24 15:52:24;;;;;;;;;;;;;;;13.07;59.92;96800.78;4194029;28;6386;-68
2022/11/24 15:54:28;;;;;;;;;;;;;;;13.06;60.16;96802.63;4195989;28;6940;-69
2022/11/24 15:56:33;;;;;;;;;;;;;;;13.07;60.00;96808.75;4193223;28;5696;-69
2022/11/24 15:58:36;;;;;;;;;;;;;;;13.06;60.18;96809.78;4191915;28;5781;-70
2022/11/24 16:00:40;;;;;;;;;;;;;;;13.03;60.25;96802.25;4210962;28;5785;-70
2022/11/24 16:02:43;;;;;;;;;;;;;;;13.07;60.37;96806.09;4202444;28;5681;-70
2022/11/24 16:04:46;;;;;;;;;;;;;;;13.07;60.42;96814.88;4203625;28;5694;-70
2022/11/24 16:06:49;;;;;;;;;;;;;;;13.07;60.35;96811.41;4210471;28;5667;-70
2022/11/24 16:08:52;;;;;;;;;;;;;;;13.06;60.12;96807.13;4185889;28;5706;-70
2022/11/24 16:10:58;;;;;;;;;;;;;;;13.05;60.37;96806.31;4210888;28;5788;-70
2022/11/24 16:13:02;;;;;;;;;;;;;;;13.06;60.21;96807.13;4208886;28;5773;-70
2022/11/24 16:15:05;;;;;;;;;;;;;;;13.06;60.49;96809.78;4209410;28;5675;-70
2022/11/24 16:17:10;;;;;;;;;;;;;;;13.04;60.24;96804.69;4205036;28;5754;-69
2022/11/24 16:19:15;;;;;;;;;;;;;;;13.06;60.19;96812.44;4205516;28;5712;-69
2022/11/24 16:21:18;;;;;;;;;;;;;;;13.05;60.50;96816.13;4205649;28;6483;-69
2022/11/24 16:23:21;;;;;;;;;;;;;;;13.04;60.66;96809.19;4207761;28;5795;-71
2022/11/24 16:25:23;;;;;;;;;;;;;;;13.03;60.56;96807.56;4196251;28;5729;-71
2022/11/24 16:27:26;;;;;;;;;;;;;;;13.03;60.21;96808.38;4201361;28;5804;-70
2022/11/24 16:29:29;;;;;;;;;;;;;;;13.03;60.40;96804.91;4197621;28;6407;-69
2022/11/24 16:31:42;;;;;;;;;;;;;;;13.02;60.51;96806.75;4199415;28;6577;-70
2022/11/24 16:33:46;;;;;;;;;;;;;;;13.04;60.45;96809.19;4189833;28;6781;-70
2022/11/24 16:35:49;;;;;;;;;;;;;;;13.03;60.38;96812.84;4200352;28;5706;-70
2022/11/24 16:37:52;;;;;;;;;;;;;;;13.01;60.43;96801.59;4199657;28;5753;-70
2022/11/24 16:39:54;;;;;;;;;;;;;;;13.01;60.17;96807.72;4195116;28;6110;-70
2022/11/24 16:41:57;;;;;;;;;;;;;;;13.01;60.51;96804.25;4201056;28;6561;-71
2022/11/24 16:44:00;;;;;;;;;;;;;;;13.00;60.56;96811.41;4191844;28;5711;-70
2022/11/24 16:46:19;;;;;;;;;;;;;;;12.99;60.40;96812.44;4196211;28;5685;-70
2022/11/24 16:48:22;;;;;;;;;;;;;;;12.97;60.41;96809.19;4202963;28;5669;-70
2022/11/24 16:50:26;;;;;;;;;;;;;;;12.96;60.43;96812.84;4192853;28;5756;-70
2022/11/24 16:52:29;;;;;;;;;;;;;;;12.96;60.12;96809.38;4197181;28;5863;-70
2022/11/24 16:54:33;;;;;;;;;;;;;;;12.96;60.30;96812.84;4200279;28;5680;-70
2022/11/24 16:56:36;;;;;;;;;;;;;;;12.93;60.06;96801.84;4192629;28;5726;-70
2022/11/24 16:58:40;;;;;;;;;;;;;;;12.94;60.23;96806.13;4194223;28;7702;-70
2022/11/24 17:00:44;;;;;;;;;;;;;;;12.94;60.16;96798.19;4200056;28;5709;-71
2022/11/24 17:02:47;;;;;;;;;;;;;;;12.92;59.93;96800.22;4194076;28;5882;-70
2022/11/24 17:04:51;;;;;;;;;;;;;;;12.91;60.04;96796.75;4199215;28;5709;-70
2022/11/24 17:06:57;;;;;;;;;;;;;;;12.90;59.93;96791.63;4196834;28;5723;-71
2022/11/24 17:09:00;;;;;;;;;;;;;;;12.92;59.74;96790.44;4203150;28;5793;-70
2022/11/24 17:11:07;;;;;;;;;;;;;;;12.92;59.81;96787.78;4195753;28;5741;-70
2022/11/24 17:13:13;;;;;;;;;;;;;;;12.93;59.94;96786.75;4199537;28;5972;-70
2022/11/24 17:15:16;;;;;;;;;;;;;;;12.93;59.97;96785.94;4196698;28;5820;-69
2022/11/24 17:17:36;;;;;;;;;;;;;;;12.93;59.61;96785.94;4196168;28;5713;-77
2022/11/24 17:19:57;;;;;;;;;;;;;;;12.93;59.59;96781.44;4196396;28;5804;-67
2022/11/24 17:22:02;;;;;;;;;;;;;;;12.93;59.72;96777.97;4200249;28;5205;-74
2022/11/24 17:24:09;;;;;;;;;;;;;;;12.91;59.75;96780.00;4191125;28;7738;-69
2022/11/24 17:26:13;;;;;;;;;;;;;;;12.91;59.82;96777.34;4192251;28;5917;-69
2022/11/24 17:28:16;;;;;;;;;;;;;;;12.91;59.49;96778.19;4195131;28;5690;-70
2022/11/24 17:30:20;;;;;;;;;;;;;;;12.91;59.48;96767.56;4197389;28;5774;-70
2022/11/24 17:32:23;;;;;;;;;;;;;;;12.93;59.71;96770.00;4194748;28;5834;-67
2022/11/24 17:34:26;;;;;;;;;;;;;;;12.93;59.38;96767.38;4193657;28;5808;-69
2022/11/24 17:36:31;;;;;;;;;;;;;;;12.94;59.32;96767.16;4201621;28;5708;-68
2022/11/24 17:38:36;;;;;;;;;;;;;;;12.93;59.24;96775.31;4200100;28;5788;-68
2022/11/24 17:40:38;;;;;;;;;;;;;;;12.92;59.36;96776.34;4194044;28;5968;-68
2022/11/24 17:42:41;;;;;;;;;;;;;;;12.93;59.54;96780.63;4200077;28;5685;-70
2022/11/24 17:44:44;;;;;;;;;;;;;;;12.92;59.18;96785.13;4206779;28;5098;-72
2022/11/24 17:46:47;;;;;;;;;;;;;;;12.92;59.32;96779.81;4194822;28;7729;-69
2022/11/24 17:48:51;;;;;;;;;;;;;;;12.92;59.20;96779.00;4202404;28;5675;-72